createdAt,value
2023-05-14T00:01:32.858Z,101972.31
2023-05-14T00:04:55.678Z,101971.34
2023-05-14T00:08:16.922Z,101967.19
2023-05-14T00:11:38.929Z,101971.69
2023-05-14T00:15:00.610Z,101966.47
2023-05-14T00:18:22.021Z,101965.50
2023-05-14T00:21:45.138Z,101962.81
2023-05-14T00:25:08.688Z,101964.88
2023-05-14T00:28:30.141Z,101961.72
2023-05-14T00:31:52.057Z,101967.28
2023-05-14T00:35:14.062Z,101961.94
2023-05-14T00:38:39.600Z,101958.28
2023-05-14T00:42:02.606Z,101948.56
2023-05-14T00:45:24.074Z,101953.19
2023-05-14T00:48:46.333Z,101948.31
2023-05-14T00:52:10.071Z,101947.56
2023-05-14T00:55:33.618Z,101950.25
2023-05-14T00:58:55.249Z,101953.03
2023-05-14T01:02:17.102Z,101947.09
2023-05-14T01:05:45.008Z,101949.25
2023-05-14T01:09:12.889Z,101947.75
2023-05-14T01:12:41.279Z,101954.06
2023-05-14T01:16:05.736Z,101944.34
2023-05-14T01:19:41.533Z,101948.00
2023-05-14T01:23:04.932Z,101948.88
2023-05-14T01:26:26.493Z,101950.16
2023-05-14T01:29:54.375Z,101948.69
2023-05-14T01:33:19.237Z,101950.97
2023-05-14T01:36:42.429Z,101950.69
2023-05-14T01:40:09.422Z,101952.03
2023-05-14T01:43:31.822Z,101943.59
2023-05-14T01:46:53.951Z,101943.09
2023-05-14T01:50:15.889Z,101937.34
2023-05-14T01:53:37.689Z,101929.66
2023-05-14T01:57:01.231Z,101935.00
2023-05-14T02:00:25.850Z,101929.47
2023-05-14T02:03:47.274Z,101922.41
2023-05-14T02:07:09.071Z,101928.69
2023-05-14T02:10:30.503Z,101919.34
2023-05-14T02:13:53.089Z,101917.50
2023-05-14T02:17:16.613Z,101916.16
2023-05-14T02:20:38.363Z,101911.13
2023-05-14T02:24:00.796Z,101915.00
2023-05-14T02:27:22.273Z,101914.59
2023-05-14T02:30:45.410Z,101908.63
2023-05-14T02:34:07.772Z,101914.25
2023-05-14T02:37:29.193Z,101907.34
2023-05-14T02:40:51.013Z,101908.63
2023-05-14T02:44:12.973Z,101913.22
2023-05-14T02:47:38.038Z,101913.47
2023-05-14T02:50:59.778Z,101908.22
2023-05-14T02:54:21.534Z,101910.16
2023-05-14T02:57:43.232Z,101909.72
2023-05-14T03:01:04.770Z,101917.94
2023-05-14T03:04:28.197Z,101916.97
2023-05-14T03:07:51.444Z,101917.84
2023-05-14T03:11:13.230Z,101916.97
2023-05-14T03:14:35.338Z,101918.81
2023-05-14T03:17:56.861Z,101918.69
2023-05-14T03:21:20.069Z,101917.84
2023-05-14T03:24:41.708Z,101916.88
2023-05-14T03:28:03.101Z,101922.09
2023-05-14T03:31:24.879Z,101921.78
2023-05-14T03:34:46.669Z,101913.69
2023-05-14T03:38:09.430Z,101923.16
2023-05-14T03:41:31.480Z,101914.19
2023-05-14T03:44:53.013Z,101912.28
2023-05-14T03:48:15.226Z,101917.59
2023-05-14T03:51:36.630Z,101918.44
2023-05-14T03:55:01.345Z,101915.56
2023-05-14T03:58:23.002Z,101911.91
2023-05-14T04:01:45.553Z,101904.78
2023-05-14T04:05:08.256Z,101908.28
2023-05-14T04:08:30.161Z,101906.47
2023-05-14T04:11:53.157Z,101910.03
2023-05-14T04:15:14.865Z,101904.69
2023-05-14T04:18:37.909Z,101900.28
2023-05-14T04:21:59.392Z,101905.53
2023-05-14T04:25:20.917Z,101896.44
2023-05-14T04:28:43.791Z,101898.16
2023-05-14T04:32:05.804Z,101899.53
2023-05-14T04:35:27.723Z,101891.28
2023-05-14T04:38:49.440Z,101891.06
2023-05-14T04:42:10.944Z,101891.72
2023-05-14T04:45:35.053Z,101891.16
2023-05-14T04:48:57.673Z,101888.13
2023-05-14T04:52:19.265Z,101886.59
2023-05-14T04:55:40.892Z,101881.75
2023-05-14T04:59:02.226Z,101883.72
2023-05-14T05:02:25.526Z,101877.44
2023-05-14T05:05:47.071Z,101880.38
2023-05-14T05:09:09.473Z,101886.97
2023-05-14T05:12:30.943Z,101888.69
2023-05-14T05:15:52.327Z,101881.88
2023-05-14T05:19:15.133Z,101880.22
2023-05-14T05:22:37.254Z,101877.66
2023-05-14T05:25:58.523Z,101865.78
2023-05-14T05:29:19.632Z,101868.56
2023-05-14T05:32:41.461Z,101867.97
2023-05-14T05:36:04.732Z,101867.25
2023-05-14T05:39:26.480Z,101858.41
2023-05-14T05:42:48.010Z,101854.97
2023-05-14T05:46:09.545Z,101847.31
2023-05-14T05:49:31.323Z,101847.53
2023-05-14T05:52:54.498Z,101860.16
2023-05-14T05:56:16.056Z,101848.13
2023-05-14T05:59:37.965Z,101856.50
2023-05-14T06:02:59.270Z,101857.09
2023-05-14T06:06:21.706Z,101856.59
2023-05-14T06:09:44.636Z,101861.44
2023-05-14T06:13:05.757Z,101861.66
2023-05-14T06:16:27.601Z,101855.69
2023-05-14T06:19:49.794Z,101859.53
2023-05-14T06:23:12.357Z,101865.72
2023-05-14T06:26:35.409Z,101849.81
2023-05-14T06:29:56.960Z,101851.97
2023-05-14T06:33:20.019Z,101852.16
2023-05-14T06:36:42.322Z,101849.97
2023-05-14T06:40:03.828Z,101849.31
2023-05-14T06:43:26.821Z,101852.19
2023-05-14T06:46:48.582Z,101842.63
2023-05-14T06:50:11.575Z,101849.88
2023-05-14T06:53:33.016Z,101845.28
2023-05-14T06:56:54.786Z,101839.13
2023-05-14T07:00:18.792Z,101840.84
2023-05-14T07:03:40.521Z,101848.22
2023-05-14T07:07:01.918Z,101843.75
2023-05-14T07:10:23.256Z,101835.69
2023-05-14T07:13:44.718Z,101835.88
2023-05-14T07:17:07.805Z,101840.25
2023-05-14T07:20:29.276Z,101836.63
2023-05-14T07:23:51.017Z,101835.94
2023-05-14T07:27:12.530Z,101834.25
2023-05-14T07:30:34.141Z,101828.44
2023-05-14T07:33:56.782Z,101827.72
2023-05-14T07:37:19.019Z,101825.34
2023-05-14T07:40:40.743Z,101815.84
2023-05-14T07:44:02.019Z,101819.94
2023-05-14T07:47:24.219Z,101816.66
2023-05-14T07:50:46.960Z,101820.63
2023-05-14T07:54:08.508Z,101821.75
2023-05-14T07:57:30.532Z,101819.47
2023-05-14T08:00:52.402Z,101812.53
2023-05-14T08:04:16.142Z,101802.88
2023-05-14T08:07:39.548Z,101801.16
2023-05-14T08:11:01.882Z,101808.47
2023-05-14T08:14:23.290Z,101805.22
2023-05-14T08:17:44.773Z,101804.66
2023-05-14T08:21:07.133Z,101807.59
2023-05-14T08:24:30.277Z,101806.28
2023-05-14T08:27:53.622Z,101802.31
2023-05-14T08:31:15.231Z,101804.56
2023-05-14T08:34:37.129Z,101802.25
2023-05-14T08:37:58.788Z,101800.66
2023-05-14T08:41:22.683Z,101799.22
2023-05-14T08:44:49.159Z,101802.00
2023-05-14T08:48:13.942Z,101793.28
2023-05-14T08:51:36.324Z,101791.84
2023-05-14T08:55:00.276Z,101791.09
2023-05-14T08:58:23.442Z,101778.88
2023-05-14T09:01:48.649Z,101784.34
2023-05-14T09:05:11.433Z,101773.56
2023-05-14T09:08:33.278Z,101774.31
2023-05-14T09:11:55.241Z,101780.19
2023-05-14T09:15:18.446Z,101762.91
2023-05-14T09:18:44.756Z,101765.19
2023-05-14T09:22:10.300Z,101764.78
2023-05-14T09:25:33.096Z,101760.97
2023-05-14T09:28:56.148Z,101746.69
2023-05-14T09:32:20.599Z,101740.00
2023-05-14T09:35:43.362Z,101731.09
2023-05-14T09:39:05.450Z,101727.28
2023-05-14T09:42:27.470Z,101725.47
2023-05-14T09:45:49.026Z,101726.03
2023-05-14T09:49:12.408Z,101722.66
2023-05-14T09:52:34.352Z,101719.16
2023-05-14T09:55:56.186Z,101718.63
2023-05-14T09:59:17.964Z,101716.47
2023-05-14T10:02:41.584Z,101696.38
2023-05-14T10:06:07.252Z,101693.53
2023-05-14T10:09:30.370Z,101687.25
2023-05-14T10:12:57.516Z,101678.97
2023-05-14T10:16:23.293Z,101678.31
2023-05-14T10:19:48.699Z,101671.88
2023-05-14T10:23:11.758Z,101675.63
2023-05-14T10:26:34.649Z,101665.13
2023-05-14T10:29:57.484Z,101656.78
2023-05-14T10:33:19.075Z,101646.81
2023-05-14T10:36:41.028Z,101637.63
2023-05-14T10:40:06.847Z,101643.88
2023-05-14T10:43:30.892Z,101634.22
2023-05-14T10:46:43.050Z,101643.31
2023-05-14T10:50:07.253Z,101630.75
2023-05-14T10:53:34.548Z,101628.38
2023-05-14T10:56:59.863Z,101623.41
2023-05-14T11:00:21.557Z,101620.84
2023-05-14T11:03:47.260Z,101622.47
2023-05-14T11:07:09.243Z,101606.34
2023-05-14T11:10:30.840Z,101605.63
2023-05-14T11:13:54.816Z,101599.03
2023-05-14T11:17:16.764Z,101594.44
2023-05-14T11:20:38.642Z,101591.34
2023-05-14T11:24:01.021Z,101583.72
2023-05-14T11:27:24.295Z,101586.34
2023-05-14T11:30:47.388Z,101585.44
2023-05-14T11:34:10.051Z,101571.81
2023-05-14T11:37:31.901Z,101572.09
2023-05-14T11:40:54.217Z,101560.56
2023-05-14T11:44:16.013Z,101561.03
2023-05-14T11:47:39.298Z,101561.03
2023-05-14T11:51:00.886Z,101554.59
2023-05-14T11:54:22.050Z,101553.56
2023-05-14T11:57:44.683Z,101550.63
2023-05-14T12:01:06.552Z,101540.75
2023-05-14T12:04:31.362Z,101540.56
2023-05-14T12:07:52.786Z,101542.91
2023-05-14T12:11:14.759Z,101535.41
2023-05-14T12:14:38.917Z,101543.75
2023-05-14T12:18:02.065Z,101532.53
2023-05-14T12:21:25.573Z,101534.59
2023-05-14T12:24:54.827Z,101536.44
2023-05-14T12:28:17.106Z,101538.31
2023-05-14T12:31:38.646Z,101534.59
2023-05-14T12:35:01.114Z,101530.19
2023-05-14T12:38:24.006Z,101530.19
2023-05-14T12:41:46.764Z,101520.19
2023-05-14T12:45:09.039Z,101513.28
2023-05-14T12:48:30.489Z,101510.34
2023-05-14T12:52:03.241Z,101507.25
2023-05-14T12:55:37.110Z,101507.09
2023-05-14T12:58:58.864Z,101504.56
2023-05-14T13:02:20.584Z,101500.38
2023-05-14T13:05:42.114Z,101495.97
2023-05-14T13:09:04.378Z,101498.47
2023-05-14T13:12:27.482Z,101491.38
2023-05-14T13:15:48.810Z,101486.97
2023-05-14T13:19:10.246Z,101481.56
2023-05-14T13:22:32.010Z,101487.84
2023-05-14T13:25:53.612Z,101479.88
2023-05-14T13:29:16.280Z,101471.56
2023-05-14T13:32:37.551Z,101480.16
2023-05-14T13:35:59.566Z,101474.56
2023-05-14T13:39:22.820Z,101467.91
2023-05-14T13:42:44.640Z,101462.94
2023-05-14T13:46:08.226Z,101461.06
2023-05-14T13:49:29.764Z,101460.03
2023-05-14T13:52:51.122Z,101458.66
2023-05-14T13:56:12.723Z,101449.09
2023-05-14T13:59:34.561Z,101442.25
2023-05-14T14:02:57.989Z,101452.16
2023-05-14T14:06:19.630Z,101448.84
2023-05-14T14:09:40.847Z,101444.72
2023-05-14T14:13:02.092Z,101440.34
2023-05-14T14:16:24.069Z,101441.56
2023-05-14T14:19:46.645Z,101430.06
2023-05-14T14:23:08.856Z,101439.41
2023-05-14T14:26:30.334Z,101428.56
2023-05-14T14:29:52.067Z,101426.72
2023-05-14T14:33:13.456Z,101418.09
2023-05-14T14:36:36.490Z,101415.41
2023-05-14T14:39:57.797Z,101409.31
2023-05-14T14:43:19.563Z,101405.97
2023-05-14T14:46:42.862Z,101404.28
2023-05-14T14:50:05.113Z,101408.41
2023-05-14T14:53:27.864Z,101408.41
2023-05-14T14:56:52.329Z,101403.81
2023-05-14T15:00:15.557Z,101399.88
2023-05-14T15:03:37.453Z,101396.78
2023-05-14T15:06:59.575Z,101393.88
2023-05-14T15:10:22.705Z,101388.44
2023-05-14T15:13:44.492Z,101390.13
2023-05-14T15:17:06.417Z,101389.28
2023-05-14T15:20:28.027Z,101385.94
2023-05-14T15:23:49.500Z,101389.69
2023-05-14T15:27:12.669Z,101383.41
2023-05-14T15:30:34.604Z,101380.50
2023-05-14T15:33:56.639Z,101376.78
2023-05-14T15:37:18.524Z,101375.91
2023-05-14T15:40:41.875Z,101372.00
2023-05-14T15:44:05.446Z,101364.75
2023-05-14T15:47:27.115Z,101365.25
2023-05-14T15:50:49.729Z,101363.38
2023-05-14T15:54:11.929Z,101347.16
2023-05-14T15:57:33.192Z,101352.13
2023-05-14T16:00:56.300Z,101348.25
2023-05-14T16:04:17.764Z,101343.72
2023-05-14T16:07:39.762Z,101334.91
2023-05-14T16:11:01.107Z,101338.28
2023-05-14T16:14:22.775Z,101336.41
2023-05-14T16:17:45.534Z,101337.41
2023-05-14T16:21:07.226Z,101328.44
2023-05-14T16:24:28.670Z,101333.69
2023-05-14T16:27:50.460Z,101314.19
2023-05-14T16:31:12.564Z,101321.81
2023-05-14T16:34:35.612Z,101317.41
2023-05-14T16:37:57.087Z,101315.03
2023-05-14T16:41:19.368Z,101312.81
2023-05-14T16:44:41.150Z,101314.06
2023-05-14T16:48:02.806Z,101309.44
2023-05-14T16:51:26.271Z,101307.94
2023-05-14T16:54:47.835Z,101306.59
2023-05-14T16:58:09.572Z,101307.75
2023-05-14T17:01:30.974Z,101301.22
2023-05-14T17:04:54.279Z,101304.28
2023-05-14T17:08:17.217Z,101302.38
2023-05-14T17:11:38.745Z,101309.19
2023-05-14T17:15:02.995Z,101298.59
2023-05-14T17:18:25.956Z,101302.59
2023-05-14T17:21:47.618Z,101311.19
2023-05-14T17:25:11.199Z,101306.88
2023-05-14T17:28:33.524Z,101304.59
2023-05-14T17:31:55.589Z,101315.66
2023-05-14T17:35:17.543Z,101303.81
2023-05-14T17:38:39.134Z,101310.09
2023-05-14T17:42:03.591Z,101312.44
2023-05-14T17:45:25.589Z,101307.28
2023-05-14T17:48:47.364Z,101303.19
2023-05-14T17:52:09.334Z,101304.50
2023-05-14T17:55:30.817Z,101301.19
2023-05-14T17:58:53.993Z,101299.59
2023-05-14T18:02:15.924Z,101302.38
2023-05-14T18:05:38.032Z,101304.16
2023-05-14T18:08:59.605Z,101300.47
2023-05-14T18:12:20.899Z,101302.59
2023-05-14T18:15:44.779Z,101303.69
2023-05-14T18:19:06.525Z,101311.03
2023-05-14T18:22:27.840Z,101307.53
2023-05-14T18:25:49.392Z,101314.88
2023-05-14T18:29:11.003Z,101312.53
2023-05-14T18:32:33.658Z,101309.22
2023-05-14T18:35:55.275Z,101313.16
2023-05-14T18:39:17.364Z,101304.44
2023-05-14T18:42:38.683Z,101306.91
2023-05-14T18:46:00.209Z,101315.34
2023-05-14T18:49:23.414Z,101309.84
2023-05-14T18:52:44.578Z,101314.41
2023-05-14T18:56:06.374Z,101313.25
2023-05-14T18:59:28.357Z,101317.00
2023-05-14T19:02:49.956Z,101320.19
2023-05-14T19:06:13.172Z,101321.03
2023-05-14T19:09:34.809Z,101326.13
2023-05-14T19:12:57.530Z,101322.25
2023-05-14T19:16:19.095Z,101322.25
2023-05-14T19:19:41.036Z,101323.09
2023-05-14T19:23:04.300Z,101332.88
2023-05-14T19:26:26.375Z,101322.94
2023-05-14T19:29:47.920Z,101320.59
2023-05-14T19:33:09.306Z,101316.53
2023-05-14T19:36:32.299Z,101320.06
2023-05-14T19:39:55.026Z,101326.97
2023-05-14T19:43:16.300Z,101320.56
2023-05-14T19:46:38.033Z,101319.22
2023-05-14T19:49:59.571Z,101314.81
2023-05-14T19:53:20.833Z,101313.13
2023-05-14T19:56:43.587Z,101306.06
2023-05-14T20:00:07.361Z,101308.91
2023-05-14T20:03:32.204Z,101302.16
2023-05-14T20:06:53.940Z,101292.56
2023-05-14T20:10:15.918Z,101291.88
2023-05-14T20:13:38.931Z,101297.59
2023-05-14T20:17:00.498Z,101294.38
2023-05-14T20:20:22.342Z,101290.19
2023-05-14T20:23:44.043Z,101285.28
2023-05-14T20:27:06.303Z,101291.16
2023-05-14T20:30:29.059Z,101284.94
2023-05-14T20:33:51.727Z,101286.41
2023-05-14T20:37:12.989Z,101279.69
2023-05-14T20:40:34.615Z,101280.16
2023-05-14T20:43:56.022Z,101274.91
2023-05-14T20:47:21.465Z,101265.97
2023-05-14T20:50:43.006Z,101270.16
2023-05-14T20:54:04.306Z,101267.78
2023-05-14T20:57:26.016Z,101256.66
2023-05-14T21:00:48.391Z,101260.00
2023-05-14T21:04:11.765Z,101253.41
2023-05-14T21:07:33.561Z,101249.19
2023-05-14T21:10:55.064Z,101244.28
2023-05-14T21:18:08.717Z,101240.00
2023-05-14T21:21:32.053Z,101236.78
2023-05-14T21:24:54.228Z,101229.03
2023-05-14T21:28:16.012Z,101233.75
2023-05-14T21:31:37.329Z,101213.88
2023-05-14T21:34:58.960Z,101217.22
2023-05-14T21:38:21.591Z,101221.03
2023-05-14T21:41:43.424Z,101218.84
2023-05-14T21:45:05.499Z,101220.31
2023-05-14T21:48:27.213Z,101214.41
2023-05-14T21:51:52.853Z,101214.22
2023-05-14T21:55:16.176Z,101214.53
2023-05-14T21:58:37.950Z,101212.16
2023-05-14T22:05:24.264Z,101199.72
2023-05-14T22:08:46.057Z,101204.41
2023-05-14T22:12:09.574Z,101200.50
2023-05-14T22:15:31.191Z,101195.59
2023-05-14T22:18:52.526Z,101193.22
2023-05-14T22:22:14.403Z,101195.41
2023-05-14T22:25:36.434Z,101192.16
2023-05-14T22:28:59.117Z,101184.72
2023-05-14T22:32:20.770Z,101186.06
2023-05-14T22:35:42.579Z,101187.19
2023-05-14T22:39:04.725Z,101175.38
2023-05-14T22:42:27.287Z,101175.81
2023-05-14T22:45:50.351Z,101166.88
2023-05-14T22:49:11.726Z,101163.94
2023-05-14T22:52:32.898Z,101167.78
2023-05-14T22:56:45.981Z,101165.72
2023-05-14T23:00:09.914Z,101161.81
2023-05-14T23:03:32.710Z,101156.91
2023-05-14T23:06:54.661Z,101157.34
2023-05-14T23:10:16.120Z,101152.59
2023-05-14T23:13:38.685Z,101145.16
2023-05-14T23:17:00.352Z,101142.78
2023-05-14T23:20:23.292Z,101136.19
2023-05-14T23:23:45.365Z,101127.91
2023-05-14T23:27:07.279Z,101124.13
2023-05-14T23:30:28.700Z,101122.06
2023-05-14T23:33:50.776Z,101120.28
2023-05-14T23:37:14.021Z,101113.84
2023-05-14T23:40:35.871Z,101105.41
2023-05-14T23:43:57.655Z,101107.84
2023-05-14T23:47:19.094Z,101096.00
2023-05-14T23:50:40.799Z,101108.84
2023-05-14T23:54:03.871Z,101099.56
2023-05-14T23:57:26.012Z,101094.66
